Time;durP1;ratioP1;P1;durP2;ratioP2;P2;SDS_P1;SDS_P2;PMS_P1;PMS_P2;Temp;Humidity;BMP_temperature;BMP_pressure;BME280_temperature;BME280_humidity;BME280_pressure;Samples;Min_cycle;Max_cycle;Signal;HPM_P1;HPM_P2
2024/02/01 00:00:17;;;;;;;8.50;3.55;;;12.10;98.30;;;;;;4265557;27;20100;-61
2024/02/01 00:02:20;;;;;;;5.65;3.63;;;12.10;98.30;;;;;;4266223;27;20134;-62
2024/02/01 00:04:22;;;;;;;7.28;3.72;;;12.20;98.20;;;;;;4266272;27;20409;-62
2024/02/01 00:06:24;;;;;;;6.00;3.80;;;12.20;98.20;;;;;;4266330;27;20051;-61
2024/02/01 00:08:26;;;;;;;5.45;3.50;;;12.20;98.30;;;;;;4266050;27;20050;-61
2024/02/01 00:10:28;;;;;;;6.63;4.13;;;12.30;98.20;;;;;;4265818;27;20043;-60
2024/02/01 00:12:31;;;;;;;6.20;3.53;;;12.10;98.80;;;;;;4265241;27;20522;-61
2024/02/01 00:14:33;;;;;;;7.72;3.83;;;12.20;98.60;;;;;;4265401;27;20160;-60
2024/02/01 00:16:35;;;;;;;7.47;3.50;;;12.20;98.50;;;;;;4265738;27;20043;-61
2024/02/01 00:18:39;;;;;;;8.15;4.00;;;12.20;98.60;;;;;;4265563;27;20042;-60
2024/02/01 00:20:41;;;;;;;7.28;3.80;;;12.20;98.70;;;;;;4265616;27;20061;-60
2024/02/01 00:22:44;;;;;;;5.85;3.90;;;12.20;98.70;;;;;;4265563;27;20050;-61
2024/02/01 00:24:46;;;;;;;7.60;4.05;;;12.30;98.70;;;;;;4265605;27;20070;-61
2024/02/01 00:26:48;;;;;;;5.97;4.15;;;12.20;98.60;;;;;;4265196;27;20039;-61
2024/02/01 00:28:52;;;;;;;6.85;3.83;;;12.20;98.70;;;;;;4265423;27;20055;-61
2024/02/01 00:30:54;;;;;;;6.55;3.80;;;12.20;98.80;;;;;;4265451;27;20057;-62
2024/02/01 00:32:56;;;;;;;8.10;3.83;;;12.20;98.90;;;;;;4265536;27;20382;-61
2024/02/01 00:34:58;;;;;;;12.80;4.00;;;12.10;98.90;;;;;;4265742;27;20038;-61
2024/02/01 00:37:00;;;;;;;8.52;4.43;;;12.20;99.00;;;;;;4266724;27;20394;-63
2024/02/01 00:39:02;;;;;;;7.20;3.63;;;12.20;98.90;;;;;;4267622;27;20054;-61
2024/02/01 00:41:05;;;;;;;7.18;3.90;;;12.20;99.10;;;;;;4266835;27;20043;-62
2024/02/01 00:43:08;;;;;;;7.88;4.10;;;12.20;99.00;;;;;;4266663;27;20039;-61
2024/02/01 00:45:11;;;;;;;6.75;4.22;;;12.20;99.10;;;;;;4266109;27;20415;-61
2024/02/01 00:47:13;;;;;;;11.43;4.40;;;12.10;99.00;;;;;;4265639;27;20051;-61
2024/02/01 00:49:16;;;;;;;8.20;4.25;;;12.10;99.20;;;;;;4265498;27;20042;-62
2024/02/01 00:51:18;;;;;;;6.18;4.40;;;12.20;99.20;;;;;;4246836;27;20146;-61
2024/02/01 00:53:23;;;;;;;8.80;4.32;;;12.20;99.10;;;;;;4264906;27;20053;-61
2024/02/01 00:55:25;;;;;;;9.50;4.65;;;12.20;99.10;;;;;;4264564;27;20118;-60
2024/02/01 00:57:27;;;;;;;11.20;5.03;;;12.20;99.20;;;;;;4264942;27;20047;-61
2024/02/01 00:59:29;;;;;;;9.10;4.70;;;12.20;99.40;;;;;;4264853;27;20120;-61
2024/02/01 01:01:32;;;;;;;9.45;4.78;;;12.20;99.30;;;;;;4264910;27;20390;-61
2024/02/01 01:03:34;;;;;;;7.68;5.30;;;12.20;99.30;;;;;;4264740;27;20042;-61
2024/02/01 01:05:36;;;;;;;8.93;5.25;;;12.20;99.30;;;;;;4265077;27;20060;-61
2024/02/01 01:07:39;;;;;;;15.00;5.35;;;12.20;99.50;;;;;;4264701;27;20126;-61
2024/02/01 01:09:41;;;;;;;15.55;5.43;;;12.20;99.40;;;;;;4265016;27;20243;-61
2024/02/01 01:11:43;;;;;;;9.73;4.80;;;12.10;99.50;;;;;;4264526;27;20394;-60
2024/02/01 01:13:45;;;;;;;8.00;4.82;;;12.10;99.70;;;;;;4268264;27;20061;-61
2024/02/01 01:15:47;;;;;;;8.02;4.45;;;12.10;99.70;;;;;;4268469;27;20409;-60
2024/02/01 01:17:50;;;;;;;12.80;4.88;;;12.10;99.70;;;;;;4268365;27;20043;-60
2024/02/01 01:19:54;;;;;;;11.80;5.05;;;12.10;99.70;;;;;;4268385;27;20088;-60
2024/02/01 01:21:58;;;;;;;8.65;5.38;;;12.20;99.60;;;;;;4268469;27;20046;-60
2024/02/01 01:24:00;;;;;;;7.38;4.65;;;12.20;99.70;;;;;;4268376;27;20131;-60
2024/02/01 01:26:02;;;;;;;10.68;5.63;;;12.10;99.80;;;;;;4267922;27;20046;-61
2024/02/01 01:28:04;;;;;;;8.45;4.72;;;12.10;99.80;;;;;;4268314;27;20046;-65
2024/02/01 01:30:07;;;;;;;10.90;5.32;;;12.10;99.90;;;;;;4268226;27;20050;-61
2024/02/01 01:32:10;;;;;;;11.07;5.28;;;12.00;99.90;;;;;;4268297;27;20468;-60
2024/02/01 01:34:13;;;;;;;9.13;4.53;;;12.00;99.90;;;;;;4268447;27;20078;-61
2024/02/01 01:36:15;;;;;;;10.50;5.30;;;12.00;99.90;;;;;;4268577;27;20462;-62
2024/02/01 01:38:17;;;;;;;7.78;5.07;;;12.10;99.90;;;;;;4268440;27;20043;-61
2024/02/01 01:40:20;;;;;;;12.95;5.68;;;12.00;99.90;;;;;;4268075;27;20067;-60
2024/02/01 01:42:22;;;;;;;12.68;5.40;;;12.00;99.90;;;;;;4268338;27;20047;-61
2024/02/01 01:44:24;;;;;;;8.57;4.55;;;12.00;99.90;;;;;;4267913;27;20039;-61
2024/02/01 01:46:28;;;;;;;13.13;5.20;;;12.00;99.90;;;;;;4268228;27;20543;-61
2024/02/01 01:48:32;;;;;;;10.27;5.93;;;12.10;99.90;;;;;;4267852;27;20561;-60
2024/02/01 01:50:36;;;;;;;8.88;5.80;;;12.10;99.90;;;;;;4267838;27;20046;-60
2024/02/01 01:52:40;;;;;;;9.55;4.80;;;12.00;99.90;;;;;;4267588;27;20043;-61
2024/02/01 01:54:42;;;;;;;13.80;6.23;;;12.00;99.90;;;;;;4267436;27;20070;-60
2024/02/01 01:56:45;;;;;;;11.40;5.70;;;12.00;99.90;;;;;;4249546;27;20881;-60
2024/02/01 01:58:49;;;;;;;10.77;5.72;;;12.00;99.90;;;;;;4267835;27;20165;-61
2024/02/01 02:00:51;;;;;;;8.07;5.35;;;12.00;99.90;;;;;;4267709;27;20046;-60
2024/02/01 02:02:54;;;;;;;10.75;5.28;;;12.10;99.90;;;;;;4267599;27;20043;-60
2024/02/01 02:04:59;;;;;;;11.43;5.40;;;12.10;99.90;;;;;;4267667;27;20072;-60
2024/02/01 02:07:03;;;;;;;11.77;5.55;;;12.10;99.90;;;;;;4267560;27;20042;-60
2024/02/01 02:09:12;;;;;;;10.70;5.28;;;12.10;99.90;;;;;;4267164;27;20038;-63
2024/02/01 02:11:14;;;;;;;10.07;5.10;;;12.00;99.90;;;;;;4267631;27;20047;-62
2024/02/01 02:13:16;;;;;;;10.90;5.20;;;12.00;99.90;;;;;;4267633;27;20038;-60
2024/02/01 02:15:21;;;;;;;8.80;5.32;;;12.00;99.90;;;;;;4267604;27;20047;-62
2024/02/01 02:17:27;;;;;;;10.00;5.00;;;12.00;99.90;;;;;;4267403;27;20061;-61
2024/02/01 02:19:29;;;;;;;10.82;5.65;;;12.00;99.90;;;;;;4267742;27;20038;-60
2024/02/01 02:21:33;;;;;;;10.27;5.55;;;12.10;99.90;;;;;;4267141;27;20057;-60
2024/02/01 02:23:36;;;;;;;8.85;5.15;;;12.10;99.90;;;;;;4266905;27;20093;-61
2024/02/01 02:25:39;;;;;;;9.63;5.30;;;12.10;99.90;;;;;;4267389;27;20043;-61
2024/02/01 02:27:42;;;;;;;9.32;5.35;;;12.20;99.90;;;;;;4267138;27;20043;-60
2024/02/01 02:29:44;;;;;;;10.82;5.60;;;12.10;99.90;;;;;;4267359;27;20074;-61
2024/02/01 02:31:47;;;;;;;11.82;6.20;;;12.10;99.90;;;;;;4267191;27;20039;-60
2024/02/01 02:33:49;;;;;;;12.80;5.22;;;12.10;99.90;;;;;;4267027;27;20070;-60
2024/02/01 02:35:51;;;;;;;11.75;5.55;;;12.20;99.90;;;;;;4267052;27;20489;-61
2024/02/01 02:37:54;;;;;;;8.43;4.90;;;12.10;99.90;;;;;;4266803;27;20043;-61
2024/02/01 02:39:57;;;;;;;9.57;5.68;;;12.20;99.90;;;;;;4266990;27;20482;-60
2024/02/01 02:41:59;;;;;;;12.05;6.43;;;12.20;99.90;;;;;;4266990;27;20046;-61
2024/02/01 02:44:02;;;;;;;13.25;5.22;;;12.20;99.90;;;;;;4266758;27;20067;-60
2024/02/01 02:46:04;;;;;;;9.13;5.50;;;12.20;99.90;;;;;;4267077;27;20043;-61
2024/02/01 02:48:09;;;;;;;11.70;6.00;;;12.10;99.90;;;;;;4266824;27;20049;-60
2024/02/01 02:50:11;;;;;;;10.27;6.00;;;12.20;99.90;;;;;;4267004;27;20047;-61
2024/02/01 02:52:13;;;;;;;8.93;5.70;;;12.20;99.90;;;;;;4266741;27;20374;-61
2024/02/01 02:54:15;;;;;;;8.70;4.90;;;12.20;99.90;;;;;;4266519;27;20058;-60
2024/02/01 02:56:21;;;;;;;16.77;6.03;;;12.20;99.90;;;;;;4266837;27;20050;-60
2024/02/01 02:58:23;;;;;;;;;;;12.30;99.90;;;;;;4267557;27;20050;-60
2024/02/01 03:00:25;;;;;;;9.50;5.15;;;12.30;99.90;;;;;;4266562;27;20110;-60
2024/02/01 03:02:27;;;;;;;8.80;5.30;;;12.20;99.90;;;;;;4266571;27;20087;-60
2024/02/01 03:04:29;;;;;;;16.80;5.95;;;12.30;99.90;;;;;;4266558;27;20039;-61
2024/02/01 03:06:31;;;;;;;11.80;5.82;;;12.30;99.90;;;;;;4266421;27;20118;-61
2024/02/01 03:08:33;;;;;;;12.57;5.88;;;12.30;99.90;;;;;;4266653;27;20053;-60
2024/02/01 03:10:35;;;;;;;13.38;5.95;;;12.30;99.90;;;;;;4266682;27;20042;-60
2024/02/01 03:12:40;;;;;;;7.93;4.72;;;12.40;99.90;;;;;;4266382;27;20134;-61
2024/02/01 03:14:42;;;;;;;11.52;5.45;;;12.30;99.90;;;;;;4266591;27;20049;-61
2024/02/01 03:16:46;;;;;;;11.48;5.88;;;12.30;99.90;;;;;;4266388;27;20430;-61
2024/02/01 03:18:49;;;;;;;14.77;6.15;;;12.30;99.90;;;;;;4248075;27;20051;-60
2024/02/01 03:20:55;;;;;;;13.55;5.82;;;12.30;99.90;;;;;;4265940;27;20126;-60
2024/02/01 03:22:58;;;;;;;9.25;5.18;;;12.30;99.90;;;;;;4266329;27;20054;-60
2024/02/01 03:25:00;;;;;;;12.23;5.38;;;12.30;99.90;;;;;;4266464;27;20336;-60
2024/02/01 03:27:11;;;;;;;12.35;5.85;;;12.30;99.90;;;;;;4266227;27;20095;-61
2024/02/01 03:29:16;;;;;;;9.18;4.97;;;12.30;99.90;;;;;;4266200;27;20746;-61
2024/02/01 03:31:19;;;;;;;10.73;5.20;;;12.30;99.90;;;;;;4266210;27;20136;-61
2024/02/01 03:33:22;;;;;;;8.90;4.80;;;12.30;99.90;;;;;;4266288;27;20058;-61
2024/02/01 03:35:24;;;;;;;10.85;5.70;;;12.30;99.90;;;;;;4265277;27;20063;-61
2024/02/01 03:37:27;;;;;;;9.57;4.50;;;12.30;99.90;;;;;;4265893;27;20049;-61
2024/02/01 03:39:31;;;;;;;7.13;4.78;;;12.40;99.90;;;;;;4266515;27;20077;-64
2024/02/01 03:41:34;;;;;;;12.25;5.53;;;12.30;99.90;;;;;;4266565;27;20054;-61
2024/02/01 03:43:36;;;;;;;9.15;5.53;;;12.30;99.90;;;;;;4266442;27;20047;-61
2024/02/01 03:45:48;;;;;;;12.27;5.10;;;12.20;99.90;;;;;;4266420;27;20047;-62
2024/02/01 03:47:50;;;;;;;10.68;5.72;;;12.20;99.90;;;;;;4266121;27;20043;-62
2024/02/01 03:49:52;;;;;;;11.60;5.85;;;12.20;99.90;;;;;;4265942;27;20111;-61
2024/02/01 03:51:54;;;;;;;10.38;5.13;;;12.20;99.90;;;;;;4266136;27;20409;-61
2024/02/01 03:53:57;;;;;;;9.27;5.20;;;12.30;99.90;;;;;;4265651;27;20134;-62
2024/02/01 03:55:59;;;;;;;9.63;5.38;;;12.30;99.90;;;;;;4265906;27;20103;-63
2024/02/01 03:58:01;;;;;;;9.05;4.90;;;12.30;99.90;;;;;;4265896;27;20049;-62
2024/02/01 04:00:04;;;;;;;15.63;5.53;;;12.40;99.90;;;;;;4265984;27;20457;-61
2024/02/01 04:02:14;;;;;;;13.32;5.85;;;12.30;99.90;;;;;;4265593;27;20042;-60
2024/02/01 04:04:17;;;;;;;8.10;5.20;;;12.20;99.90;;;;;;4265327;27;20054;-61
2024/02/01 04:06:22;;;;;;;;;;;12.30;99.90;;;;;;4266124;27;20050;-61
2024/02/01 04:08:24;;;;;;;13.68;5.22;;;12.30;99.90;;;;;;4265515;27;19919;-61
2024/02/01 04:10:26;;;;;;;7.25;4.60;;;12.20;99.90;;;;;;4247277;27;20051;-61
2024/02/01 04:12:28;;;;;;;8.07;5.10;;;12.20;99.90;;;;;;4265703;27;20089;-61
2024/02/01 04:14:30;;;;;;;11.02;5.45;;;12.30;99.90;;;;;;4265410;27;20092;-61
2024/02/01 04:16:32;;;;;;;10.20;4.93;;;12.30;99.90;;;;;;4265697;27;20042;-61
2024/02/01 04:18:36;;;;;;;11.98;5.18;;;12.30;99.90;;;;;;4265024;27;20776;-61
2024/02/01 04:20:40;;;;;;;10.40;5.38;;;12.30;99.90;;;;;;4265349;27;20050;-61
2024/02/01 04:22:42;;;;;;;9.18;5.05;;;12.30;99.90;;;;;;4265564;27;20066;-61
2024/02/01 04:24:44;;;;;;;8.55;5.43;;;12.30;99.90;;;;;;4265435;27;20066;-61
2024/02/01 04:26:47;;;;;;;9.75;4.90;;;12.20;99.90;;;;;;4265614;27;20053;-61
2024/02/01 04:28:52;;;;;;;12.52;5.45;;;12.30;99.90;;;;;;4265497;27;20042;-61
2024/02/01 04:30:54;;;;;;;11.65;5.18;;;12.30;99.90;;;;;;4265402;27;20039;-61
2024/02/01 04:32:56;;;;;;;14.55;5.57;;;12.30;99.90;;;;;;4264819;27;20130;-61
2024/02/01 04:35:03;;;;;;;11.13;5.60;;;12.30;99.90;;;;;;4265120;27;20059;-61
2024/02/01 04:37:12;;;;;;;10.93;4.80;;;12.30;99.90;;;;;;4265280;27;20081;-61
2024/02/01 04:39:14;;;;;;;14.15;5.70;;;12.30;99.90;;;;;;4265327;27;20473;-61
2024/02/01 04:41:16;;;;;;;11.85;6.28;;;12.30;99.90;;;;;;4265200;27;20049;-61
2024/02/01 04:43:19;;;;;;;11.13;5.75;;;12.20;99.90;;;;;;4265266;27;20460;-60
2024/02/01 04:45:21;;;;;;;10.95;5.60;;;12.20;99.90;;;;;;4265257;27;20554;-60
2024/02/01 04:47:23;;;;;;;15.52;5.50;;;12.10;99.90;;;;;;4263891;27;20078;-61
2024/02/01 04:49:28;;;;;;;11.55;5.40;;;12.10;99.90;;;;;;4264964;27;20074;-61
2024/02/01 04:51:31;;;;;;;11.38;6.07;;;12.10;99.90;;;;;;4265250;27;20129;-60
2024/02/01 04:53:33;;;;;;;10.68;5.63;;;12.00;99.90;;;;;;4264766;27;20158;-60
2024/02/01 04:55:36;;;;;;;12.73;5.95;;;12.00;99.90;;;;;;4265010;27;20042;-61
2024/02/01 04:57:40;;;;;;;12.63;6.40;;;11.90;99.90;;;;;;4264863;27;20055;-61
2024/02/01 04:59:43;;;;;;;12.77;6.32;;;11.90;99.90;;;;;;4265119;27;20046;-61
2024/02/01 05:01:45;;;;;;;12.40;6.63;;;11.80;99.90;;;;;;4264938;27;20087;-61
2024/02/01 05:03:50;;;;;;;11.52;6.50;;;11.90;99.90;;;;;;4264353;27;20117;-61
2024/02/01 05:05:52;;;;;;;;;;;11.80;99.90;;;;;;4265333;27;20046;-61
2024/02/01 05:07:56;;;;;;;11.70;6.30;;;11.80;99.90;;;;;;4264954;27;20293;-61
2024/02/01 05:09:58;;;;;;;12.10;5.80;;;11.60;99.90;;;;;;4264804;27;20065;-61
2024/02/01 05:12:01;;;;;;;8.20;4.80;;;11.70;99.90;;;;;;4265091;27;20046;-61
2024/02/01 05:14:10;;;;;;;11.75;6.28;;;11.80;99.90;;;;;;4264968;27;20091;-61
2024/02/01 05:16:13;;;;;;;11.05;5.80;;;11.80;99.90;;;;;;4264803;27;20043;-61
2024/02/01 05:18:15;;;;;;;14.45;6.53;;;11.80;99.90;;;;;;4264530;27;20072;-61
2024/02/01 05:20:17;;;;;;;10.40;6.43;;;11.80;99.90;;;;;;4264568;27;20099;-61
2024/02/01 05:22:20;;;;;;;11.80;5.22;;;11.80;99.90;;;;;;4264633;27;20043;-61
2024/02/01 05:24:23;;;;;;;9.80;5.55;;;11.80;99.90;;;;;;4264795;27;20500;-61
2024/02/01 05:26:25;;;;;;;7.28;4.90;;;11.80;99.90;;;;;;4264905;27;20107;-64
2024/02/01 05:28:28;;;;;;;12.60;6.13;;;11.80;99.90;;;;;;4265602;27;20047;-66
2024/02/01 05:30:30;;;;;;;10.02;5.28;;;11.80;99.90;;;;;;4265723;27;20453;-61
2024/02/01 05:32:32;;;;;;;10.77;5.93;;;11.90;99.90;;;;;;4264552;27;20453;-62
2024/02/01 05:34:34;;;;;;;12.93;5.85;;;11.90;99.90;;;;;;4264688;27;20035;-61
2024/02/01 05:36:37;;;;;;;8.93;5.75;;;11.90;99.90;;;;;;4264708;27;20055;-61
2024/02/01 05:38:39;;;;;;;10.77;6.13;;;11.90;99.90;;;;;;4246236;28;20044;-61
2024/02/01 05:40:43;;;;;;;12.23;6.57;;;11.90;99.90;;;;;;4264744;27;20045;-61
2024/02/01 05:42:45;;;;;;;10.45;5.40;;;11.80;99.90;;;;;;4264604;27;20426;-61
2024/02/01 05:44:47;;;;;;;12.60;6.00;;;11.70;99.90;;;;;;4264651;27;20074;-61
2024/02/01 05:46:53;;;;;;;12.10;5.78;;;11.80;99.90;;;;;;4264547;27;20045;-61
2024/02/01 05:48:56;;;;;;;10.18;6.20;;;11.80;99.90;;;;;;4264538;27;20416;-61
2024/02/01 05:51:00;;;;;;;14.80;5.97;;;11.80;99.90;;;;;;4264744;27;20075;-61
2024/02/01 05:53:03;;;;;;;11.27;6.32;;;11.80;99.90;;;;;;4246054;27;20104;-61
2024/02/01 05:55:06;;;;;;;12.25;6.07;;;11.80;99.90;;;;;;4264370;27;20534;-61
2024/02/01 05:57:10;;;;;;;12.45;5.80;;;11.80;99.90;;;;;;4264673;27;20125;-61
2024/02/01 05:59:13;;;;;;;11.32;5.78;;;11.90;99.90;;;;;;4266800;27;20066;-61
2024/02/01 06:01:17;;;;;;;10.00;5.95;;;11.90;99.90;;;;;;4267482;27;20125;-61
2024/02/01 06:03:20;;;;;;;13.82;6.85;;;11.90;99.90;;;;;;4267580;27;20046;-61
2024/02/01 06:05:22;;;;;;;12.65;5.95;;;11.90;99.90;;;;;;4267907;27;20054;-61
2024/02/01 06:07:27;;;;;;;10.27;5.78;;;11.90;99.90;;;;;;4267549;27;20043;-61
2024/02/01 06:09:29;;;;;;;7.20;5.05;;;11.80;99.90;;;;;;4267535;27;20124;-61
2024/02/01 06:11:31;;;;;;;14.05;6.18;;;11.90;99.90;;;;;;4267726;27;20078;-61
2024/02/01 06:13:36;;;;;;;10.27;6.30;;;11.90;99.90;;;;;;4267458;27;20047;-61
2024/02/01 06:15:38;;;;;;;10.75;6.20;;;12.00;99.90;;;;;;4267303;27;20482;-62
2024/02/01 06:17:40;;;;;;;12.10;6.20;;;11.90;99.90;;;;;;4267387;27;20035;-61
2024/02/01 06:19:42;;;;;;;14.00;6.30;;;11.90;99.90;;;;;;4267299;27;20130;-61
2024/02/01 06:21:44;;;;;;;12.88;6.55;;;11.90;99.90;;;;;;4267530;27;20051;-61
2024/02/01 06:23:46;;;;;;;10.77;5.45;;;11.90;99.90;;;;;;4267463;27;20430;-61
2024/02/01 06:25:48;;;;;;;9.68;6.20;;;12.00;99.90;;;;;;4267426;27;20049;-62
2024/02/01 06:27:51;;;;;;;11.20;5.70;;;12.00;99.90;;;;;;4267333;27;20039;-61
2024/02/01 06:29:58;;;;;;;11.38;6.28;;;11.90;99.90;;;;;;4267020;27;20042;-61
2024/02/01 06:32:01;;;;;;;13.38;6.68;;;11.90;99.90;;;;;;4267405;27;20459;-61
2024/02/01 06:34:03;;;;;;;12.48;5.85;;;11.90;99.90;;;;;;4267188;27;20051;-61
2024/02/01 06:36:07;;;;;;;10.32;6.38;;;12.00;99.90;;;;;;4267285;27;20088;-62
2024/02/01 06:38:22;;;;;;;10.32;6.32;;;11.90;99.90;;;;;;4267020;27;20043;-61
2024/02/01 06:41:17;;;;;;;;;;;11.90;99.90;;;;;;4267967;27;20043;-67
2024/02/01 06:43:08;;;;;;;11.02;6.63;;;11.90;99.90;;;;;;4259131;27;20323;-61
2024/02/01 06:45:32;;;;;;;13.98;7.47;;;11.90;99.90;;;;;;4267317;27;20050;-62
2024/02/01 06:47:38;;;;;;;12.27;6.30;;;11.80;99.90;;;;;;4267379;27;20475;-62
2024/02/01 06:50:15;;;;;;;11.80;7.03;;;11.80;99.90;;;;;;4248642;27;20122;-61
2024/02/01 06:54:39;;;;;;;13.07;7.32;;;11.90;99.90;;;;;;4266574;27;20573;-61
2024/02/01 06:56:48;;;;;;;13.93;6.47;;;11.90;99.90;;;;;;4266846;27;20478;-60
2024/02/01 06:59:06;;;;;;;15.70;7.28;;;11.70;99.90;;;;;;4266574;27;20061;-60
2024/02/01 07:01:33;;;;;;;15.30;7.22;;;11.80;99.90;;;;;;4266718;27;20047;-61
2024/02/01 07:03:50;;;;;;;17.42;7.20;;;11.70;99.90;;;;;;4266971;27;20042;-62
2024/02/01 07:08:02;;;;;;;15.77;6.65;;;11.60;99.90;;;;;;4266889;27;20095;-61
2024/02/01 07:10:16;;;;;;;14.02;7.53;;;11.60;99.90;;;;;;4265644;27;20047;-61
2024/02/01 07:12:29;;;;;;;14.35;6.63;;;11.60;99.90;;;;;;4248266;27;20502;-60
2024/02/01 07:14:36;;;;;;;12.30;7.03;;;11.70;99.90;;;;;;4266569;27;20038;-61
2024/02/01 07:16:57;;;;;;;16.40;7.15;;;11.70;99.90;;;;;;4266843;27;20043;-60
2024/02/01 07:21:30;;;;;;;14.98;8.05;;;11.80;99.90;;;;;;4266615;27;20496;-61
2024/02/01 07:23:38;;;;;;;20.70;8.20;;;11.70;99.90;;;;;;4248170;27;20039;-61
2024/02/01 07:25:59;;;;;;;10.88;6.75;;;11.70;99.90;;;;;;4266447;27;20053;-61
2024/02/01 07:59:07;;;;;;;11.82;6.63;;;11.90;99.90;;;;;;4179792;28;20049;-63
2024/02/01 08:01:17;;;;;;;17.58;7.65;;;12.00;99.90;;;;;;4179741;28;20045;-61
2024/02/01 08:03:42;;;;;;;12.10;8.07;;;12.10;99.90;;;;;;4179395;28;20262;-61
2024/02/01 08:08:06;;;;;;;15.15;8.23;;;11.90;99.90;;;;;;4188511;27;20488;-61
2024/02/01 08:10:08;;;;;;;12.50;7.68;;;12.00;99.90;;;;;;4265569;27;20422;-61
2024/02/01 08:12:10;;;;;;;14.43;7.20;;;11.90;99.90;;;;;;4265298;27;20443;-61
2024/02/01 08:14:15;;;;;;;16.00;8.13;;;11.90;99.90;;;;;;4247258;27;20043;-60
2024/02/01 08:16:18;;;;;;;10.82;6.70;;;12.00;99.90;;;;;;4265525;27;20096;-64
2024/02/01 08:18:20;;;;;;;13.25;7.65;;;12.00;99.90;;;;;;4265635;27;20042;-60
2024/02/01 08:20:23;;;;;;;12.60;6.50;;;12.10;99.90;;;;;;4265617;27;20129;-61
2024/02/01 08:22:27;;;;;;;13.27;6.82;;;12.10;99.90;;;;;;4265321;27;20486;-60
2024/02/01 08:24:29;;;;;;;16.15;7.72;;;12.10;99.90;;;;;;4265589;27;20049;-60
2024/02/01 08:26:37;;;;;;;11.23;7.00;;;12.10;99.90;;;;;;4265297;27;20062;-65
2024/02/01 08:28:39;;;;;;;12.35;6.38;;;12.00;99.90;;;;;;4265522;27;20046;-61
2024/02/01 08:30:44;;;;;;;9.95;6.47;;;12.00;99.90;;;;;;4265915;27;20066;-62
2024/02/01 08:32:47;;;;;;;10.65;6.47;;;12.00;99.90;;;;;;4265531;27;20043;-61
2024/02/01 08:34:49;;;;;;;10.15;5.80;;;12.00;99.90;;;;;;4265348;27;20043;-64
2024/02/01 08:36:51;;;;;;;11.75;6.63;;;12.10;99.90;;;;;;4265611;27;20043;-61
2024/02/01 08:38:55;;;;;;;16.35;6.93;;;12.10;99.90;;;;;;4265384;27;20126;-66
2024/02/01 08:40:57;;;;;;;12.32;6.40;;;12.10;99.90;;;;;;4265493;27;20436;-61
2024/02/01 08:42:59;;;;;;;10.75;6.30;;;12.20;99.90;;;;;;4265563;27;20565;-60
2024/02/01 08:45:02;;;;;;;13.02;5.35;;;12.20;99.90;;;;;;4246938;27;20043;-59
2024/02/01 08:47:04;;;;;;;8.38;5.07;;;12.10;99.90;;;;;;4265416;27;20073;-61
2024/02/01 08:49:06;;;;;;;10.40;6.00;;;12.10;99.90;;;;;;4265309;27;20039;-60
2024/02/01 08:51:09;;;;;;;11.77;5.72;;;12.00;99.90;;;;;;4265208;27;20042;-61
2024/02/01 08:53:11;;;;;;;7.97;4.90;;;12.10;99.90;;;;;;4264766;27;20104;-60
2024/02/01 08:55:16;;;;;;;10.70;4.78;;;12.10;99.90;;;;;;4264488;27;20054;-60
2024/02/01 08:57:19;;;;;;;11.57;5.45;;;12.20;99.90;;;;;;4265034;27;20405;-60
2024/02/01 08:59:22;;;;;;;9.60;5.70;;;12.30;99.90;;;;;;4264888;27;20053;-62
2024/02/01 09:01:26;;;;;;;9.05;4.80;;;12.40;99.90;;;;;;4264977;27;20050;-60
2024/02/01 09:03:29;;;;;;;9.00;5.00;;;12.30;99.90;;;;;;4265131;27;20076;-64
2024/02/01 09:05:34;;;;;;;9.75;4.32;;;12.30;99.90;;;;;;4265494;27;20099;-62
2024/02/01 09:07:41;;;;;;;7.33;4.83;;;12.30;99.90;;;;;;4265074;27;20043;-61
2024/02/01 09:09:43;;;;;;;7.25;4.85;;;12.30;99.90;;;;;;4264566;27;20442;-61
2024/02/01 09:11:47;;;;;;;10.32;4.78;;;12.40;99.90;;;;;;4264776;27;20071;-60
2024/02/01 09:13:49;;;;;;;9.63;5.32;;;12.40;99.90;;;;;;4264678;27;20478;-61
2024/02/01 09:15:52;;;;;;;8.10;4.63;;;12.50;99.90;;;;;;4264969;27;20050;-62
2024/02/01 09:17:56;;;;;;;7.07;4.22;;;12.60;99.90;;;;;;4264778;27;20053;-60
2024/02/01 09:20:17;;;;;;;6.63;4.20;;;12.50;99.90;;;;;;4264888;27;20138;-61
2024/02/01 09:22:19;;;;;;;7.10;4.32;;;12.50;99.90;;;;;;4264642;27;20493;-61
2024/02/01 09:24:21;;;;;;;7.00;3.85;;;12.50;99.90;;;;;;4264414;27;20062;-60
2024/02/01 09:26:23;;;;;;;7.43;3.92;;;12.60;99.90;;;;;;4264843;27;20038;-62
2024/02/01 09:28:27;;;;;;;8.48;4.50;;;12.60;99.90;;;;;;4264758;27;20739;-61
2024/02/01 09:30:31;;;;;;;6.95;4.13;;;12.60;99.90;;;;;;4264800;27;20394;-61
2024/02/01 09:32:33;;;;;;;6.35;4.03;;;12.70;99.90;;;;;;4264944;27;20066;-60
2024/02/01 09:34:35;;;;;;;8.35;4.65;;;12.70;99.90;;;;;;4267942;27;20054;-61
2024/02/01 09:36:37;;;;;;;7.57;4.07;;;12.70;99.90;;;;;;4268176;27;20046;-61
2024/02/01 09:38:40;;;;;;;8.40;3.92;;;12.60;99.90;;;;;;4267943;27;20043;-61
2024/02/01 09:40:42;;;;;;;7.15;3.50;;;12.70;99.90;;;;;;4269465;27;20046;-63
2024/02/01 09:42:46;;;;;;;9.60;4.70;;;12.80;99.90;;;;;;4269179;27;20050;-64
2024/02/01 09:44:49;;;;;;;7.47;3.95;;;12.80;99.90;;;;;;4268819;27;20130;-66
2024/02/01 09:46:52;;;;;;;4.80;4.10;;;12.90;99.90;;;;;;4268169;27;20058;-61
2024/02/01 09:48:56;;;;;;;10.32;4.00;;;12.90;99.90;;;;;;4268802;27;20046;-67
2024/02/01 09:50:58;;;;;;;7.03;3.87;;;12.90;99.90;;;;;;4268952;27;20050;-61
2024/02/01 09:53:02;;;;;;;7.90;3.92;;;12.90;99.90;;;;;;4267491;27;20539;-62
2024/02/01 09:55:05;;;;;;;7.28;4.05;;;13.00;99.90;;;;;;4268257;27;20470;-62
2024/02/01 09:57:14;;;;;;;7.03;4.40;;;13.00;99.90;;;;;;4267977;27;20062;-61
2024/02/01 09:59:17;;;;;;;8.77;3.55;;;13.00;99.90;;;;;;4268044;27;20405;-61
2024/02/01 10:01:24;;;;;;;7.57;3.92;;;13.00;99.90;;;;;;4267583;27;20042;-61
2024/02/01 10:03:27;;;;;;;9.73;4.75;;;13.00;99.90;;;;;;4267357;27;20057;-61
2024/02/01 10:05:32;;;;;;;6.07;4.38;;;13.10;99.90;;;;;;4267807;27;20049;-62
2024/02/01 10:07:35;;;;;;;6.03;4.15;;;13.10;99.90;;;;;;4267341;27;20062;-61
2024/02/01 10:09:37;;;;;;;6.00;3.97;;;13.00;99.90;;;;;;4267486;27;20043;-61
2024/02/01 10:11:39;;;;;;;9.27;4.00;;;13.10;99.90;;;;;;4267660;27;20039;-61
2024/02/01 10:13:41;;;;;;;6.97;3.83;;;13.20;99.90;;;;;;4249058;27;20051;-61
2024/02/01 10:15:44;;;;;;;6.72;3.65;;;13.30;99.90;;;;;;4267426;27;20038;-61
2024/02/01 10:17:52;;;;;;;7.38;3.78;;;13.20;99.90;;;;;;4267455;27;20497;-61
2024/02/01 10:19:54;;;;;;;4.78;2.85;;;13.20;99.90;;;;;;4267354;27;20051;-61
2024/02/01 10:22:05;;;;;;;5.60;3.13;;;13.20;99.90;;;;;;4267110;27;20115;-61
2024/02/01 10:24:07;;;;;;;7.05;4.72;;;13.50;99.90;;;;;;4253736;27;20096;-60
2024/02/01 10:26:18;;;;;;;6.10;3.58;;;13.50;99.90;;;;;;4250028;27;20044;-63
2024/02/01 10:28:22;;;;;;;6.10;3.95;;;13.70;99.90;;;;;;4249624;27;20108;-64
2024/02/01 10:30:24;;;;;;;5.60;3.17;;;13.80;99.90;;;;;;4254356;27;20176;-61
2024/02/01 10:32:33;;;;;;;7.15;4.13;;;13.90;99.90;;;;;;4262696;27;20070;-59
2024/02/01 10:34:37;;;;;;;4.07;2.80;;;14.10;99.90;;;;;;4260206;27;20041;-58
2024/02/01 10:36:42;;;;;;;7.47;3.20;;;14.10;99.90;;;;;;4264497;27;20503;-58
2024/02/01 10:38:47;;;;;;;4.95;3.45;;;14.20;99.90;;;;;;4259952;27;20034;-58
2024/02/01 10:41:02;;;;;;;4.28;3.45;;;14.10;99.90;;;;;;4241845;27;20429;-59
2024/02/01 10:43:04;;;;;;;6.88;3.75;;;14.30;99.90;;;;;;4255027;27;20051;-58
2024/02/01 10:45:10;;;;;;;6.75;3.88;;;14.20;99.90;;;;;;4257540;27;20054;-58
2024/02/01 10:47:13;;;;;;;7.13;3.58;;;14.20;99.90;;;;;;4255952;27;20118;-58
2024/02/01 10:49:22;;;;;;;7.97;4.15;;;14.30;99.90;;;;;;4266440;27;20042;-61
2024/02/01 10:51:26;;;;;;;10.50;3.75;;;14.30;99.90;;;;;;4266008;27;20087;-58
2024/02/01 10:53:29;;;;;;;16.45;3.97;;;14.40;99.90;;;;;;4241293;27;20048;-58
2024/02/01 10:55:32;;;;;;;8.02;4.65;;;14.50;99.90;;;;;;4232516;28;20062;-59
2024/02/01 10:57:34;;;;;;;7.88;3.88;;;14.40;99.90;;;;;;4232186;28;20047;-58
2024/02/01 10:59:38;;;;;;;7.88;4.40;;;14.50;99.90;;;;;;4248868;27;20043;-59
2024/02/01 11:01:41;;;;;;;7.80;4.15;;;14.40;99.90;;;;;;4244232;27;20043;-59
2024/02/01 11:03:47;;;;;;;6.25;4.00;;;14.40;99.90;;;;;;4231852;27;20483;-59
2024/02/01 11:05:57;;;;;;;6.45;4.43;;;14.40;99.90;;;;;;4249018;27;20049;-59
2024/02/01 11:08:02;;;;;;;11.35;4.07;;;14.40;99.90;;;;;;4248678;27;20099;-61
2024/02/01 11:10:12;;;;;;;10.30;4.43;;;14.40;99.90;;;;;;4250828;27;20050;-59
2024/02/01 11:12:22;;;;;;;10.85;3.72;;;14.50;99.90;;;;;;4250674;27;20063;-60
2024/02/01 11:14:26;;;;;;;14.63;4.13;;;14.60;99.90;;;;;;4250466;27;20047;-61
2024/02/01 11:16:36;;;;;;;15.05;3.33;;;14.70;99.90;;;;;;4250900;27;20519;-59
2024/02/01 11:18:49;;;;;;;11.50;3.92;;;14.80;99.90;;;;;;4249050;27;20049;-59
2024/02/01 11:21:02;;;;;;;10.07;3.78;;;14.80;99.90;;;;;;4238148;27;20079;-59
2024/02/01 11:23:06;;;;;;;15.43;3.92;;;14.70;99.90;;;;;;4234732;27;20052;-66